Latest Weather Observations for Portland Harbour

IDV60801

Issued at 12:12 am EDT Sunday 7 February 2016 (issued every 30 minutes, with the page automatically refreshed every 10 minutes)

About weather observations | Map of weather stations | Latest weather observations for VIC | Other Formats
Station Details ID: 090192 Name: PORTLAND NTC AWS Lat: -38.34 Lon: 141.61 Height: 0.0 m
Data from the previous 72 hours. | See also: Recent months for locations in Victoria
Date/Time
EDT
Temp
°C
App
Temp
°C
Dew
Point
Rel
Hum
%
Delta-T
°C
Wind Press
QNH
hPa
Press
MSL
hPa
Rain
since 9 am
mm
Dir
 
Spd
km/h
Gust
km/h
Spd
kts
Gust
kts
06/11:30pm 18.7 - - - - ENE 7 9 4 5 1016.0 1016.0 -
06/11:00pm 18.8 - - - - ENE 7 9 4 5 1016.2 1016.2 -
06/10:30pm 18.9 - - - - E 9 11 5 6 1016.0 1016.0 -
06/10:00pm 19.1 - - - - ESE 7 11 4 6 1016.1 1016.1 -
06/09:30pm 19.3 - - - - E 9 11 5 6 1015.6 1015.6 -
06/09:00pm 19.3 - - - - ESE 9 11 5 6 1015.4 1015.4 -
06/08:30pm 19.6 - - - - ESE 9 13 5 7 1015.1 1015.1 -
06/08:00pm 19.7 - - - - ESE 9 11 5 6 1014.9 1014.9 -
06/07:30pm 19.9 - - - - ESE 15 19 8 10 1014.6 1014.6 -
06/07:00pm 20.3 - - - - ESE 17 20 9 11 1014.4 1014.4 -
06/06:30pm 20.5 - - - - SE 20 24 11 13 1014.2 1014.2 -
06/06:00pm 20.6 - - - - SE 22 26 12 14 1014.2 1014.2 -
06/05:30pm 21.3 - - - - SSE 17 28 9 15 1014.3 1014.3 -
06/05:00pm 21.1 - - - - SSE 24 33 13 18 1014.3 1014.3 -
06/04:30pm 20.6 - - - - SE 19 24 10 13 1014.6 1014.6 -
06/04:00pm 20.1 - - - - SE 11 20 6 11 1014.7 1014.7 -
06/03:30pm 20.0 - - - - SE 11 20 6 11 1015.0 1015.0 -
06/03:00pm 21.4 - - - - SE 13 22 7 12 1015.2 1015.2 -
06/02:30pm 19.1 - - - - ESE 11 20 6 11 1015.0 1015.0 -
06/02:00pm 19.1 - - - - E 9 19 5 10 1015.2 1015.2 -
06/01:30pm 18.7 - - - - ENE 17 20 9 11 1015.5 1015.5 -
06/01:00pm 18.6 - - - - ESE 11 22 6 12 1015.8 1015.8 -
06/12:30pm 18.3 - - - - E 13 24 7 13 1016.0 1016.0 -
06/12:00pm 18.1 - - - - E 11 17 6 9 1016.3 1016.3 -
06/11:30am 18.1 - - - - E 9 13 5 7 1016.5 1016.5 -
06/11:00am 17.6 - - - - ESE 4 7 2 4 1016.5 1016.5 -
06/10:30am 17.2 - - - - ENE 11 13 6 7 1016.4 1016.4 -
06/10:00am 17.3 - - - - ENE 11 15 6 8 1016.6 1016.6 -
06/09:30am 17.3 - - - - ENE 13 15 7 8 1016.6 1016.6 -
06/09:00am 17.2 - - - - E 13 15 7 8 1016.7 1016.7 -
06/08:30am 17.3 - - - - E 11 15 6 8 1016.7 1016.7 -
06/08:00am 17.4 - - - - E 13 15 7 8 1016.5 1016.5 -
06/07:30am 17.2 - - - - E 11 15 6 8 1016.3 1016.3 -
06/07:00am 17.2 - - - - E 13 15 7 8 1016.0 1016.0 -
06/06:30am 17.5 - - - - ENE 17 19 9 10 1015.7 1015.7 -
06/06:00am 17.8 - - - - ENE 22 26 12 14 1015.3 1015.3 -
06/05:30am 17.8 - - - - E 24 30 13 16 1015.1 1015.1 -
06/05:00am 17.9 - - - - E 17 20 9 11 1015.4 1015.4 -
06/04:30am 17.9 - - - - E 17 20 9 11 1015.7 1015.7 -
06/04:00am 18.0 - - - - E 19 20 10 11 1015.9 1015.9 -
06/03:30am 18.2 - - - - E 15 20 8 11 1016.2 1016.2 -
06/03:00am 18.2 - - - - E 17 22 9 12 1016.5 1016.5 -
06/02:30am 18.3 - - - - ESE 19 24 10 13 1016.9 1016.9 -
06/02:00am 18.4 - - - - ESE 17 22 9 12 1017.2 1017.2 -
06/01:30am 18.5 - - - - ESE 22 30 12 16 1017.3 1017.3 -
06/01:00am 18.6 - - - - ESE 24 32 13 17 1017.4 1017.4 -
06/12:30am 18.6 - - - - ESE 24 35 13 19 1017.7 1017.7 -
06/12:00am 18.7 - - - - ESE 26 37 14 20 1017.7 1017.7 -
 
Date/Time
EDT
Temp
°C
App
Temp
°C
Dew
Point
Rel
Hum
%
Delta-T
°C
Wind Press
QNH
hPa
Press
MSL
hPa
Rain
since 9 am
mm
Dir
 
Spd
km/h
Gust
km/h
Spd
kts
Gust
kts
05/11:30pm 18.9 - - - - ESE 24 32 13 17 1018.1 1018.1 -
05/11:00pm 18.9 - - - - ESE 24 32 13 17 1018.4 1018.4 -
05/10:30pm 18.9 - - - - ESE 22 28 12 15 1018.4 1018.4 -
05/10:00pm 18.9 - - - - SE 24 32 13 17 1018.6 1018.6 -
05/09:30pm 18.9 - - - - SE 24 33 13 18 1018.6 1018.6 -
05/09:00pm 19.0 - - - - SE 22 30 12 16 1018.5 1018.5 -
05/08:30pm 19.1 - - - - SE 20 28 11 15 1018.4 1018.4 -
05/08:00pm 19.2 - - - - SE 20 30 11 16 1018.0 1018.0 -
05/07:30pm 19.1 - - - - SE 22 28 12 15 1017.9 1017.9 -
05/07:00pm 19.2 - - - - SE 20 30 11 16 1017.9 1017.9 -
05/06:30pm 19.1 - - - - SE 26 35 14 19 1018.0 1018.0 -
05/06:00pm 19.1 - - - - SE 28 37 15 20 1018.1 1018.1 -
05/05:30pm 19.1 - - - - SE 24 33 13 18 1018.3 1018.3 -
05/05:00pm 19.0 - - - - SE 28 35 15 19 1018.4 1018.4 -
05/04:30pm 19.0 - - - - SE 26 35 14 19 1018.5 1018.5 -
05/04:00pm 19.1 - - - - SE 24 32 13 17 1018.7 1018.7 -
05/03:30pm 19.0 - - - - SE 26 33 14 18 1019.0 1019.0 -
05/03:00pm 18.9 - - - - SE 26 33 14 18 1019.4 1019.4 -
05/02:30pm 18.7 - - - - SE 28 35 15 19 1019.6 1019.6 -
05/02:00pm 18.6 - - - - SE 28 35 15 19 1019.9 1019.9 -
05/01:30pm 18.4 - - - - SE 28 37 15 20 1020.3 1020.3 -
05/01:00pm 18.3 - - - - SE 24 33 13 18 1020.5 1020.5 -
05/12:30pm 18.1 - - - - SE 24 32 13 17 1020.9 1020.9 -
05/12:00pm 18.2 - - - - ESE 22 28 12 15 1021.2 1021.2 -
05/11:30am 17.8 - - - - ESE 24 32 13 17 1021.4 1021.4 -
05/11:00am 17.7 - - - - ESE 19 28 10 15 1021.6 1021.6 -
05/10:30am 17.5 - - - - ESE 20 28 11 15 1021.8 1021.8 -
05/10:00am 17.4 - - - - ESE 26 32 14 17 1021.9 1021.9 -
05/09:30am 17.3 - - - - ESE 20 30 11 16 1021.9 1021.9 -
05/09:00am 17.1 - - - - ESE 24 32 13 17 1021.9 1021.9 -
05/08:30am 17.3 - - - - ESE 24 32 13 17 1021.5 1021.5 -
05/08:00am 17.2 - - - - ESE 26 35 14 19 1021.3 1021.3 -
05/07:30am 16.9 - - - - SE 28 37 15 20 1020.9 1020.9 -
05/07:00am 16.8 - - - - SE 28 39 15 21 1020.8 1020.8 -
05/06:30am 16.8 - - - - SE 30 37 16 20 1020.7 1020.7 -
05/06:00am 16.8 - - - - SE 32 39 17 21 1020.6 1020.6 -
05/05:30am 16.7 - - - - SE 28 37 15 20 1020.4 1020.4 -
05/05:00am 16.5 - - - - SE 30 39 16 21 1020.5 1020.5 -
05/04:30am 16.4 - - - - SE 26 37 14 20 1020.5 1020.5 -
05/04:00am 16.4 - - - - SE 26 37 14 20 1020.4 1020.4 -
05/03:30am 16.6 - - - - SE 22 33 12 18 1020.6 1020.6 -
05/03:00am 16.5 - - - - ESE 26 35 14 19 1020.8 1020.8 -
05/02:30am 16.6 - - - - SE 28 37 15 20 1021.0 1021.0 -
05/02:00am 16.4 - - - - SE 24 30 13 16 1021.4 1021.4 -
05/01:30am 16.3 - - - - SE 28 39 15 21 1021.6 1021.6 -
05/01:00am 16.5 - - - - SE 30 35 16 19 1021.5 1021.5 -
05/12:30am 16.7 - - - - SE 28 37 15 20 1021.5 1021.5 -
05/12:00am 16.8 - - - - SE 26 35 14 19 1021.6 1021.6 -
 
Date/Time
EDT
Temp
°C
App
Temp
°C
Dew
Point
Rel
Hum
%
Delta-T
°C
Wind Press
QNH
hPa
Press
MSL
hPa
Rain
since 9 am
mm
Dir
 
Spd
km/h
Gust
km/h
Spd
kts
Gust
kts
04/11:30pm 16.7 - - - - SE 30 39 16 21 1021.7 1021.7 -
04/11:00pm 16.7 - - - - SE 26 35 14 19 1021.9 1021.9 -
04/10:30pm 16.8 - - - - SE 24 35 13 19 1022.0 1022.0 -
04/10:00pm 17.0 - - - - SE 26 39 14 21 1021.8 1021.8 -
04/09:30pm 17.0 - - - - SE 26 39 14 21 1021.8 1021.8 -
04/09:00pm 17.0 - - - - SE 26 37 14 20 1021.7 1021.7 -
04/08:30pm 17.0 - - - - SE 26 35 14 19 1021.5 1021.5 -
04/08:00pm 16.9 - - - - SE 26 39 14 21 1021.4 1021.4 -
04/07:30pm 16.9 - - - - SE 26 39 14 21 1021.1 1021.1 -
04/07:00pm 17.0 - - - - SE 26 35 14 19 1020.9 1020.9 -
04/06:30pm 17.1 - - - - SE 26 37 14 20 1021.0 1021.0 -
04/06:00pm 17.4 - - - - SE 26 35 14 19 1021.1 1021.1 -
04/05:30pm 17.6 - - - - SE 28 37 15 20 1021.3 1021.3 -
04/05:00pm 17.5 - - - - SE 28 35 15 19 1021.3 1021.3 -
04/04:30pm 17.5 - - - - SE 22 30 12 16 1021.4 1021.4 -
04/04:00pm 17.6 - - - - SE 26 39 14 21 1021.4 1021.4 -
04/03:30pm 17.4 - - - - SE 28 35 15 19 1021.6 1021.6 -
04/03:00pm 17.3 - - - - SE 26 33 14 18 1021.8 1021.8 -
04/02:30pm 17.6 - - - - SSE 22 32 12 17 1021.8 1021.8 -
04/02:00pm 17.6 - - - - SE 24 35 13 19 1022.1 1022.1 -
04/01:30pm 17.1 - - - - SE 28 33 15 18 1022.2 1022.2 -
04/01:00pm 17.0 - - - - SSE 26 39 14 21 1022.4 1022.4 -
04/12:30pm 17.3 - - - - SE 26 35 14 19 1022.4 1022.4 -
04/12:00pm 17.1 - - - - SSE 22 28 12 15 1022.4 1022.4 -
04/11:30am 17.1 - - - - SE 22 32 12 17 1022.3 1022.3 -
04/11:00am 17.1 - - - - SSE 20 33 11 18 1022.4 1022.4 -
04/10:30am 16.8 - - - - SSE 26 35 14 19 1022.2 1022.2 -
04/10:00am 17.2 - - - - SSE 19 28 10 15 1021.8 1021.8 -
04/09:30am 16.9 - - - - SSE 19 26 10 14 1021.6 1021.6 -
04/09:00am 16.7 - - - - SSE 22 33 12 18 1021.5 1021.5 -
04/08:30am 16.6 - - - - S 19 35 10 19 1021.0 1021.0 -
04/08:00am 16.5 - - - - S 20 26 11 14 1020.6 1020.6 -
04/07:30am 16.5 - - - - S 19 28 10 15 1020.5 1020.5 -
04/07:00am 16.6 - - - - S 20 30 11 16 1020.2 1020.2 -
04/06:30am 16.6 - - - - S 20 32 11 17 1019.8 1019.8 -
04/06:00am 16.8 - - - - S 17 22 9 12 1019.5 1019.5 -
04/05:30am 16.9 - - - - S 20 28 11 15 1019.0 1019.0 -
04/05:00am 16.9 - - - - SSE 15 24 8 13 1018.6 1018.6 -
04/04:30am 16.9 - - - - SSE 17 24 9 13 1018.6 1018.6 -
04/04:00am 16.8 - - - - S 19 24 10 13 1018.4 1018.4 -
04/03:30am 16.9 - - - - S 20 35 11 19 1018.4 1018.4 -
04/03:00am 17.1 - - - - SSE 15 22 8 12 1018.4 1018.4 -
04/02:30am 17.1 - - - - S 20 26 11 14 1018.5 1018.5 -
04/02:00am 17.3 - - - - SSE 17 22 9 12 1018.5 1018.5 -
04/01:30am 17.2 - - - - SSE 22 32 12 17 1018.7 1018.7 -
04/01:00am 17.4 - - - - S 15 24 8 13 1018.6 1018.6 -
04/12:30am 17.3 - - - - SSE 20 33 11 18 1018.6 1018.6 -

Other Formats:

Comma delimited format used in spreadsheet applications
http://www.bom.gov.au/fwo/IDV60801/IDV60801.95826.axf

JavaScript Object Notation format (JSON) in row-major order
http://www.bom.gov.au/fwo/IDV60801/IDV60801.95826.json